Time;durP1;ratioP1;P1;durP2;ratioP2;P2;SDS_P1;SDS_P2;PMS_P1;PMS_P2;Temp;Humidity;BMP_temperature;BMP_pressure;BME280_temperature;BME280_humidity;BME280_pressure;Samples;Min_cycle;Max_cycle;Signal;HPM_P1;HPM_P2
2022/05/07 00:00:38;;;;;;;;;;;18.20;53.30;;;;;;2036943;28;19943;-71
2022/05/07 00:01:37;;;;;;;;;;;18.20;53.20;;;;;;2036003;28;19922;-70
2022/05/07 00:02:35;;;;;;;;;;;18.20;53.30;;;;;;2036381;28;19975;-71
2022/05/07 00:03:33;;;;;;;;;;;18.20;53.30;;;;;;2036057;28;20287;-71
2022/05/07 00:04:32;;;;;;;;;;;18.20;53.30;;;;;;2036330;28;19942;-70
2022/05/07 00:05:31;;;;;;;;;;;18.20;53.30;;;;;;2037012;28;20365;-73
2022/05/07 00:06:30;;;;;;;;;;;18.20;53.30;;;;;;2036853;28;19973;-71
2022/05/07 00:07:28;;;;;;;;;;;18.20;53.30;;;;;;2036884;28;19908;-71
2022/05/07 00:08:27;;;;;;;;;;;18.20;53.30;;;;;;2036795;28;19967;-71
2022/05/07 00:09:25;;;;;;;;;;;18.20;53.30;;;;;;2036821;28;19915;-70
2022/05/07 00:10:24;;;;;;;;;;;18.20;53.40;;;;;;2036903;28;19909;-72
2022/05/07 00:11:23;;;;;;;;;;;18.20;53.30;;;;;;2036882;28;19991;-73
2022/05/07 00:12:21;;;;;;;;;;;18.20;53.40;;;;;;2036949;28;19908;-70
2022/05/07 00:13:19;;;;;;;;;;;18.20;53.40;;;;;;2036956;28;19912;-72
2022/05/07 00:14:18;;;;;;;;;;;18.20;53.30;;;;;;2037047;28;19977;-72
2022/05/07 00:15:16;;;;;;;;;;;18.20;53.40;;;;;;2036766;28;20248;-71
2022/05/07 00:18:50;;;;;;;;;;;18.20;53.50;;;;;;2037007;28;20267;-71
2022/05/07 00:19:49;;;;;;;;;;;18.20;53.50;;;;;;2036926;28;19908;-72
2022/05/07 00:20:48;;;;;;;;;;;18.20;53.50;;;;;;2036877;28;19919;-71
2022/05/07 00:21:47;;;;;;;;;;;18.20;53.50;;;;;;2036788;28;19912;-71
2022/05/07 00:22:46;;;;;;;;;;;18.20;53.50;;;;;;2036811;28;19908;-72
2022/05/07 00:23:45;;;;;;;;;;;18.20;53.50;;;;;;2038081;28;19908;-73
2022/05/07 00:24:43;;;;;;;;;;;18.20;53.50;;;;;;2038459;28;19919;-72
2022/05/07 00:25:42;;;;;;;;;;;18.20;53.60;;;;;;2038372;28;19909;-72
2022/05/07 00:26:40;;;;;;;;;;;18.20;53.60;;;;;;2038337;28;19919;-71
2022/05/07 00:27:38;;;;;;;;;;;18.10;53.50;;;;;;2038300;28;19909;-72
2022/05/07 00:28:37;;;;;;;;;;;18.20;53.60;;;;;;2038509;28;19908;-71
2022/05/07 00:29:35;;;;;;;;;;;18.20;53.60;;;;;;2038484;28;19915;-71
2022/05/07 00:30:34;;;;;;;;;;;18.20;53.60;;;;;;2038607;28;19908;-72
2022/05/07 00:31:32;;;;;;;;;;;18.20;53.60;;;;;;2038412;28;19915;-71
2022/05/07 00:32:31;;;;;;;;;;;18.10;53.60;;;;;;2037795;28;20371;-72
2022/05/07 00:33:29;;;;;;;;;;;18.10;53.60;;;;;;2037903;28;19908;-71
2022/05/07 00:34:28;;;;;;;;;;;18.20;53.70;;;;;;2038375;28;19915;-72
2022/05/07 00:35:26;;;;;;;;;;;18.20;53.70;;;;;;2038396;28;20367;-72
2022/05/07 00:36:24;;;;;;;;;;;18.10;53.60;;;;;;2038175;28;19931;-72
2022/05/07 00:37:27;;;;;;;;;;;18.20;53.70;;;;;;2038366;28;19992;-71
2022/05/07 00:38:26;;;;;;;;;;;18.20;53.70;;;;;;2038565;28;20275;-71
2022/05/07 00:39:25;;;;;;;;;;;18.20;53.70;;;;;;2038358;28;19912;-71
2022/05/07 00:40:24;;;;;;;;;;;18.20;53.70;;;;;;2038405;28;19913;-71
2022/05/07 00:41:24;;;;;;;;;;;18.10;53.70;;;;;;2038391;28;19965;-71
2022/05/07 00:42:23;;;;;;;;;;;18.10;53.70;;;;;;2038307;28;19908;-71
2022/05/07 00:43:21;;;;;;;;;;;18.10;53.70;;;;;;2038302;28;19933;-71
2022/05/07 00:44:21;;;;;;;;;;;18.10;53.70;;;;;;2038349;28;19916;-71
2022/05/07 00:45:19;;;;;;;;;;;18.10;53.70;;;;;;2037549;28;19908;-71
2022/05/07 00:46:20;;;;;;;;;;;18.10;53.70;;;;;;2037651;28;19960;-71
2022/05/07 00:47:24;;;;;;;;;;;18.10;53.80;;;;;;2037719;28;20409;-71
2022/05/07 00:48:22;;;;;;;;;;;18.10;53.70;;;;;;2037748;28;19979;-71
2022/05/07 00:49:20;;;;;;;;;;;18.10;53.70;;;;;;2038247;28;20294;-71
2022/05/07 00:51:37;;;;;;;;;;;18.10;53.80;;;;;;2038459;28;19916;-71
2022/05/07 00:52:36;;;;;;;;;;;18.20;53.90;;;;;;2038421;28;20000;-71
2022/05/07 00:53:35;;;;;;;;;;;18.10;53.70;;;;;;2038304;28;20340;-72
2022/05/07 00:54:33;;;;;;;;;;;18.20;53.90;;;;;;2038236;28;19969;-70
2022/05/07 00:55:32;;;;;;;;;;;18.10;53.70;;;;;;2038326;28;19908;-72
2022/05/07 00:56:31;;;;;;;;;;;18.10;53.80;;;;;;2038340;28;19912;-70
2022/05/07 00:57:30;;;;;;;;;;;18.10;53.80;;;;;;2038510;28;19915;-71
2022/05/07 00:58:28;;;;;;;;;;;18.10;53.80;;;;;;2038391;28;20002;-72
2022/05/07 00:59:26;;;;;;;;;;;18.10;53.80;;;;;;2038276;28;19908;-71
2022/05/07 01:00:25;;;;;;;;;;;18.10;53.80;;;;;;2038316;28;20416;-71
2022/05/07 01:01:25;;;;;;;;;;;18.10;53.80;;;;;;2038045;28;19912;-72
2022/05/07 01:02:24;;;;;;;;;;;18.10;53.90;;;;;;2038033;28;20322;-71
2022/05/07 01:03:22;;;;;;;;;;;18.10;53.90;;;;;;2038170;28;19981;-71
2022/05/07 01:04:21;;;;;;;;;;;18.00;54.40;;;;;;2038194;28;19912;-72
2022/05/07 01:05:19;;;;;;;;;;;18.10;53.90;;;;;;2038205;28;19912;-70
2022/05/07 01:06:18;;;;;;;;;;;18.10;53.90;;;;;;2038031;28;19916;-71
2022/05/07 01:07:17;;;;;;;;;;;18.10;53.90;;;;;;2038026;28;19908;-71
2022/05/07 01:08:15;;;;;;;;;;;18.10;54.00;;;;;;2038095;28;19908;-71
2022/05/07 01:09:14;;;;;;;;;;;18.10;54.00;;;;;;2038056;28;19912;-71
2022/05/07 01:10:13;;;;;;;;;;;18.10;54.00;;;;;;2038127;28;20008;-72
2022/05/07 01:11:12;;;;;;;;;;;18.10;54.00;;;;;;2038211;28;20418;-71
2022/05/07 01:12:11;;;;;;;;;;;18.10;54.00;;;;;;2038113;28;19908;-71
2022/05/07 01:13:09;;;;;;;;;;;18.10;54.00;;;;;;2038144;28;19909;-71
2022/05/07 01:14:07;;;;;;;;;;;18.10;54.00;;;;;;2038363;28;19915;-71
2022/05/07 01:15:07;;;;;;;;;;;18.10;54.00;;;;;;2038334;28;20389;-72
2022/05/07 01:16:05;;;;;;;;;;;18.10;54.00;;;;;;2038374;28;19908;-70
2022/05/07 01:17:07;;;;;;;;;;;18.10;54.00;;;;;;2038348;28;19915;-71
2022/05/07 01:18:05;;;;;;;;;;;18.10;54.00;;;;;;2038080;28;19908;-72
2022/05/07 01:19:04;;;;;;;;;;;18.10;54.10;;;;;;2038088;28;19920;-71
2022/05/07 01:20:05;;;;;;;;;;;18.10;54.10;;;;;;2037438;28;20434;-70
2022/05/07 01:21:14;;;;;;;;;;;18.10;54.10;;;;;;2029449;28;19924;-71
2022/05/07 01:22:13;;;;;;;;;;;18.10;54.10;;;;;;2037589;28;19912;-72
2022/05/07 01:23:11;;;;;;;;;;;18.10;54.10;;;;;;2038016;28;19934;-71
2022/05/07 01:24:11;;;;;;;;;;;18.10;54.20;;;;;;2038084;28;19912;-73
2022/05/07 01:25:11;;;;;;;;;;;18.10;54.30;;;;;;2038054;28;19909;-71
2022/05/07 01:26:10;;;;;;;;;;;18.10;54.30;;;;;;2037975;28;19995;-72
2022/05/07 01:27:09;;;;;;;;;;;18.10;54.20;;;;;;2037930;28;19908;-73
2022/05/07 01:28:07;;;;;;;;;;;18.10;54.30;;;;;;2038057;28;20279;-72
2022/05/07 01:29:07;;;;;;;;;;;18.10;54.30;;;;;;2037992;28;19943;-71
2022/05/07 01:30:06;;;;;;;;;;;18.10;54.30;;;;;;2037986;28;19991;-71
2022/05/07 01:31:05;;;;;;;;;;;18.10;54.30;;;;;;2038081;28;20374;-70
2022/05/07 01:32:04;;;;;;;;;;;18.10;54.30;;;;;;2038005;28;19912;-70
2022/05/07 01:33:04;;;;;;;;;;;18.00;54.20;;;;;;2038061;28;19954;-71
2022/05/07 01:34:02;;;;;;;;;;;18.10;54.30;;;;;;2037487;28;19912;-72
2022/05/07 01:35:01;;;;;;;;;;;18.00;54.90;;;;;;2037909;28;19944;-71
2022/05/07 01:36:02;;;;;;;;;;;18.00;54.20;;;;;;2037891;28;20375;-72
2022/05/07 01:37:01;;;;;;;;;;;18.10;54.30;;;;;;2037795;28;19984;-71
2022/05/07 01:37:59;;;;;;;;;;;18.10;54.40;;;;;;2037979;28;19908;-72
2022/05/07 01:38:58;;;;;;;;;;;18.10;54.40;;;;;;2037990;28;20355;-73
2022/05/07 01:39:56;;;;;;;;;;;18.00;54.30;;;;;;2038010;28;19930;-71
2022/05/07 01:40:55;;;;;;;;;;;18.10;54.40;;;;;;2037873;28;19908;-71
2022/05/07 01:41:53;;;;;;;;;;;18.00;54.30;;;;;;2037822;28;19916;-71
2022/05/07 01:42:51;;;;;;;;;;;18.10;54.40;;;;;;2038235;28;19916;-71
2022/05/07 01:43:50;;;;;;;;;;;18.10;54.50;;;;;;2038411;28;19957;-71
2022/05/07 01:44:48;;;;;;;;;;;18.10;54.40;;;;;;2038557;28;19908;-71
2022/05/07 01:45:47;;;;;;;;;;;18.00;54.30;;;;;;2038292;28;20368;-71
2022/05/07 01:48:10;;;;;;;;;;;18.10;54.40;;;;;;2038842;28;19963;-72
2022/05/07 01:49:08;;;;;;;;;;;18.00;54.40;;;;;;2039207;28;20313;-72
2022/05/07 01:50:07;;;;;;;;;;;18.00;54.40;;;;;;2041271;28;19940;-72
2022/05/07 01:51:05;;;;;;;;;;;18.00;54.40;;;;;;2046938;28;19975;-72
2022/05/07 01:52:04;;;;;;;;;;;18.00;54.40;;;;;;2046673;28;19990;-72
2022/05/07 01:53:04;;;;;;;;;;;18.00;54.40;;;;;;2045984;28;19915;-71
2022/05/07 01:54:02;;;;;;;;;;;18.00;54.40;;;;;;2043930;28;19930;-71
2022/05/07 01:55:00;;;;;;;;;;;18.00;54.40;;;;;;2037990;28;19908;-73
2022/05/07 01:55:59;;;;;;;;;;;18.00;54.40;;;;;;2037912;28;19915;-71
2022/05/07 01:56:57;;;;;;;;;;;18.00;54.40;;;;;;2037901;28;19908;-70
2022/05/07 01:57:56;;;;;;;;;;;18.00;54.50;;;;;;2038037;28;19909;-70
2022/05/07 01:58:54;;;;;;;;;;;18.00;54.50;;;;;;2037987;28;20291;-71
2022/05/07 01:59:53;;;;;;;;;;;18.00;54.50;;;;;;2037889;28;19908;-71
2022/05/07 02:00:51;;;;;;;;;;;18.00;54.40;;;;;;2037879;28;20024;-71
2022/05/07 02:01:50;;;;;;;;;;;18.00;55.10;;;;;;2037716;28;19920;-73
2022/05/07 02:02:48;;;;;;;;;;;18.00;54.50;;;;;;2037853;28;19940;-71
2022/05/07 02:03:46;;;;;;;;;;;18.00;54.50;;;;;;2038038;28;19919;-72
2022/05/07 02:04:46;;;;;;;;;;;18.00;54.50;;;;;;2038103;28;20003;-71
2022/05/07 02:05:45;;;;;;;;;;;18.00;54.50;;;;;;2038106;28;19964;-72
2022/05/07 02:06:43;;;;;;;;;;;18.00;54.50;;;;;;2037859;28;19972;-71
2022/05/07 02:07:42;;;;;;;;;;;18.00;54.50;;;;;;2037839;28;20061;-70
2022/05/07 02:08:41;;;;;;;;;;;18.00;54.50;;;;;;2038133;28;19912;-70
2022/05/07 02:09:39;;;;;;;;;;;18.00;54.50;;;;;;2037269;28;19983;-71
2022/05/07 02:10:38;;;;;;;;;;;18.00;54.50;;;;;;2037332;28;20263;-70
2022/05/07 02:11:36;;;;;;;;;;;18.00;54.60;;;;;;2037658;28;19990;-70
2022/05/07 02:12:34;;;;;;;;;;;18.00;54.60;;;;;;2037790;28;19957;-71
2022/05/07 02:13:33;;;;;;;;;;;18.00;54.50;;;;;;2037641;28;19912;-71
2022/05/07 02:14:32;;;;;;;;;;;18.00;54.60;;;;;;2037566;28;20425;-72
2022/05/07 02:15:31;;;;;;;;;;;18.00;54.50;;;;;;2037755;28;19908;-70
2022/05/07 02:16:31;;;;;;;;;;;18.00;54.60;;;;;;2037492;28;20352;-70
2022/05/07 02:17:29;;;;;;;;;;;17.90;54.50;;;;;;2037593;28;20336;-71
2022/05/07 02:18:28;;;;;;;;;;;18.00;54.60;;;;;;2037688;28;19908;-71
2022/05/07 02:19:26;;;;;;;;;;;18.00;54.70;;;;;;2037504;28;19916;-71
2022/05/07 02:20:25;;;;;;;;;;;18.00;54.60;;;;;;2037785;28;19908;-71
2022/05/07 02:21:23;;;;;;;;;;;18.00;54.60;;;;;;2037541;28;20344;-70
2022/05/07 02:22:21;;;;;;;;;;;18.00;54.60;;;;;;2037725;28;19920;-71
2022/05/07 02:23:20;;;;;;;;;;;18.00;54.60;;;;;;2037644;28;20007;-71
2022/05/07 02:24:18;;;;;;;;;;;17.90;54.50;;;;;;2037480;28;20363;-71
2022/05/07 02:25:17;;;;;;;;;;;18.00;54.60;;;;;;2037537;28;19908;-72
2022/05/07 02:26:15;;;;;;;;;;;18.00;55.20;;;;;;2037452;28;20284;-72
2022/05/07 02:27:14;;;;;;;;;;;18.00;54.60;;;;;;2037469;28;19912;-71
2022/05/07 02:28:12;;;;;;;;;;;18.00;54.60;;;;;;2037462;28;20356;-71
2022/05/07 02:29:10;;;;;;;;;;;18.00;54.60;;;;;;2037592;28;19969;-71
2022/05/07 02:30:09;;;;;;;;;;;17.90;54.60;;;;;;2037556;28;19953;-71
2022/05/07 02:31:08;;;;;;;;;;;18.00;54.60;;;;;;2037388;28;20359;-71
2022/05/07 02:32:06;;;;;;;;;;;17.90;54.60;;;;;;2037619;28;19908;-72
2022/05/07 02:33:05;;;;;;;;;;;17.90;54.60;;;;;;2037646;28;19943;-72
2022/05/07 02:34:03;;;;;;;;;;;17.90;54.60;;;;;;2037505;28;19951;-71
2022/05/07 02:35:01;;;;;;;;;;;17.90;54.60;;;;;;2037481;28;19930;-71
2022/05/07 02:36:00;;;;;;;;;;;17.90;54.60;;;;;;2037551;28;19943;-71
2022/05/07 02:36:59;;;;;;;;;;;17.90;54.60;;;;;;2037424;28;20052;-72
2022/05/07 02:37:58;;;;;;;;;;;17.90;54.60;;;;;;2036824;28;19912;-72
2022/05/07 02:38:56;;;;;;;;;;;17.90;54.60;;;;;;2036945;28;19909;-71
2022/05/07 02:39:55;;;;;;;;;;;17.90;54.60;;;;;;2037386;28;19919;-71
2022/05/07 02:43:27;;;;;;;;;;;17.90;54.70;;;;;;2037459;28;19912;-71
2022/05/07 02:44:25;;;;;;;;;;;17.90;54.70;;;;;;2036785;28;19908;-72
2022/05/07 02:45:24;;;;;;;;;;;18.00;54.80;;;;;;2036513;28;20344;-72
2022/05/07 02:46:22;;;;;;;;;;;18.00;54.70;;;;;;2036189;28;19909;-71
2022/05/07 02:47:21;;;;;;;;;;;17.90;54.70;;;;;;2037474;28;20391;-71
2022/05/07 02:48:19;;;;;;;;;;;17.90;54.70;;;;;;2037328;28;20011;-71
2022/05/07 02:49:18;;;;;;;;;;;17.90;54.70;;;;;;2037306;28;19916;-73
2022/05/07 02:50:17;;;;;;;;;;;17.90;54.70;;;;;;2037303;28;20347;-71
2022/05/07 02:51:16;;;;;;;;;;;17.90;54.70;;;;;;2028549;28;19913;-71
2022/05/07 02:52:14;;;;;;;;;;;17.90;54.70;;;;;;2028744;28;19919;-71
2022/05/07 02:53:12;;;;;;;;;;;17.90;54.70;;;;;;2036876;28;19995;-70
2022/05/07 02:54:11;;;;;;;;;;;17.90;54.70;;;;;;2037190;28;19908;-70
2022/05/07 02:55:10;;;;;;;;;;;17.90;54.70;;;;;;2036670;28;19948;-70
2022/05/07 02:56:08;;;;;;;;;;;17.90;54.70;;;;;;2036728;28;19908;-70
2022/05/07 02:57:06;;;;;;;;;;;18.00;54.80;;;;;;2037186;28;20263;-72
2022/05/07 02:58:06;;;;;;;;;;;17.90;54.70;;;;;;2037332;28;19914;-72
2022/05/07 02:59:05;;;;;;;;;;;17.90;54.80;;;;;;2037184;28;19909;-70
2022/05/07 03:00:06;;;;;;;;;;;17.90;54.70;;;;;;2037245;28;19912;-73
2022/05/07 03:01:05;;;;;;;;;;;17.90;54.70;;;;;;2037267;28;19919;-71
2022/05/07 03:02:04;;;;;;;;;;;17.90;54.70;;;;;;2037127;28;19924;-73
2022/05/07 03:03:03;;;;;;;;;;;17.90;54.80;;;;;;2036618;28;20284;-70
2022/05/07 03:04:01;;;;;;;;;;;17.90;54.80;;;;;;2036740;28;19995;-72
2022/05/07 03:05:01;;;;;;;;;;;17.90;54.80;;;;;;2037291;28;20279;-71
2022/05/07 03:06:00;;;;;;;;;;;17.90;54.80;;;;;;2037133;28;19939;-71
2022/05/07 03:06:59;;;;;;;;;;;17.90;54.80;;;;;;2037173;28;19931;-71
2022/05/07 03:07:59;;;;;;;;;;;17.90;54.80;;;;;;2037203;28;19915;-71
2022/05/07 03:08:58;;;;;;;;;;;17.90;54.80;;;;;;2037089;28;19916;-70
2022/05/07 03:09:56;;;;;;;;;;;17.90;54.80;;;;;;2037386;28;19908;-70
2022/05/07 03:10:55;;;;;;;;;;;17.90;54.80;;;;;;2036539;28;19960;-71
2022/05/07 03:11:53;;;;;;;;;;;17.90;54.80;;;;;;2028635;28;20205;-70
2022/05/07 03:12:52;;;;;;;;;;;17.90;54.80;;;;;;2036172;28;20001;-71
2022/05/07 03:13:50;;;;;;;;;;;17.90;54.80;;;;;;2035769;28;20000;-71
2022/05/07 03:14:48;;;;;;;;;;;17.90;54.90;;;;;;2036519;28;19912;-69
2022/05/07 03:15:47;;;;;;;;;;;17.90;54.90;;;;;;2037135;28;20376;-72
2022/05/07 03:16:47;;;;;;;;;;;17.90;54.90;;;;;;2037092;28;19978;-71
2022/05/07 03:17:45;;;;;;;;;;;17.90;55.00;;;;;;2037215;28;19908;-72
2022/05/07 03:18:44;;;;;;;;;;;17.90;54.90;;;;;;2036397;28;19944;-71
2022/05/07 03:19:42;;;;;;;;;;;17.90;54.90;;;;;;2036359;28;19995;-71
2022/05/07 03:20:41;;;;;;;;;;;18.00;55.00;;;;;;2036215;28;20021;-71
2022/05/07 03:21:39;;;;;;;;;;;17.90;54.90;;;;;;2036953;28;19915;-71
2022/05/07 03:22:39;;;;;;;;;;;17.90;54.90;;;;;;2037081;28;19939;-70
2022/05/07 03:23:37;;;;;;;;;;;17.90;55.00;;;;;;2037087;28;19908;-70
2022/05/07 03:24:38;;;;;;;;;;;17.90;55.00;;;;;;2037218;28;19915;-70
2022/05/07 03:25:37;;;;;;;;;;;17.90;55.00;;;;;;2037029;28;19908;-73
2022/05/07 03:26:35;;;;;;;;;;;17.90;55.00;;;;;;2037154;28;19915;-72
2022/05/07 03:27:34;;;;;;;;;;;17.90;55.00;;;;;;2037125;28;19912;-71
2022/05/07 03:28:32;;;;;;;;;;;17.90;55.00;;;;;;2037047;28;20347;-71
2022/05/07 03:29:31;;;;;;;;;;;17.90;55.00;;;;;;2037076;28;19908;-71
2022/05/07 03:30:29;;;;;;;;;;;17.90;55.00;;;;;;2037264;28;19908;-70
2022/05/07 03:31:27;;;;;;;;;;;17.90;55.00;;;;;;2037067;28;19908;-70
2022/05/07 03:32:27;;;;;;;;;;;17.90;55.70;;;;;;2036832;28;19908;-71
2022/05/07 03:33:26;;;;;;;;;;;17.90;55.00;;;;;;2037173;28;19908;-70
2022/05/07 03:34:25;;;;;;;;;;;17.90;55.00;;;;;;2036656;28;19908;-70
2022/05/07 03:35:23;;;;;;;;;;;17.90;55.00;;;;;;2037202;28;19931;-71
2022/05/07 03:36:21;;;;;;;;;;;17.90;55.00;;;;;;2036931;28;19957;-71
2022/05/07 03:37:20;;;;;;;;;;;17.90;55.00;;;;;;2036893;28;20020;-71
2022/05/07 03:38:18;;;;;;;;;;;17.90;55.10;;;;;;2037170;28;19999;-71
2022/05/07 03:39:17;;;;;;;;;;;17.90;55.10;;;;;;2037016;28;19908;-71
2022/05/07 03:40:15;;;;;;;;;;;17.90;55.10;;;;;;2036401;28;19939;-71
2022/05/07 03:41:14;;;;;;;;;;;17.90;55.10;;;;;;2036437;28;20352;-71
2022/05/07 03:42:13;;;;;;;;;;;17.90;55.20;;;;;;2037023;28;19911;-71
2022/05/07 03:43:12;;;;;;;;;;;17.90;55.10;;;;;;2037057;28;19908;-70
2022/05/07 03:44:10;;;;;;;;;;;17.90;55.20;;;;;;2036991;28;20031;-71
2022/05/07 03:45:09;;;;;;;;;;;17.90;55.20;;;;;;2037010;28;20425;-70
2022/05/07 03:46:08;;;;;;;;;;;17.90;55.20;;;;;;2036958;28;19908;-73
2022/05/07 03:47:07;;;;;;;;;;;17.90;55.20;;;;;;2036282;28;20256;-72
2022/05/07 03:48:05;;;;;;;;;;;17.90;55.20;;;;;;2036511;28;19938;-71
2022/05/07 03:49:04;;;;;;;;;;;17.90;55.20;;;;;;2036981;28;20102;-71
2022/05/07 03:50:03;;;;;;;;;;;17.90;55.10;;;;;;2036977;28;20283;-72
2022/05/07 03:51:02;;;;;;;;;;;17.90;55.20;;;;;;2036926;28;19912;-71
2022/05/07 03:53:30;;;;;;;;;;;17.90;55.10;;;;;;2037179;28;19912;-71
2022/05/07 03:54:29;;;;;;;;;;;17.90;55.20;;;;;;2037226;28;19917;-72
2022/05/07 03:55:27;;;;;;;;;;;17.90;55.20;;;;;;2037037;28;19915;-71
2022/05/07 03:56:26;;;;;;;;;;;17.90;55.30;;;;;;2036853;28;19908;-71
2022/05/07 03:57:24;;;;;;;;;;;17.90;55.20;;;;;;2036882;28;19931;-72
2022/05/07 03:58:23;;;;;;;;;;;17.80;55.20;;;;;;2037097;28;19958;-72
2022/05/07 03:59:22;;;;;;;;;;;17.90;55.30;;;;;;2037005;28;19911;-72
2022/05/07 04:00:20;;;;;;;;;;;17.90;55.20;;;;;;2037042;28;19921;-71
2022/05/07 04:01:19;;;;;;;;;;;17.90;55.30;;;;;;2036618;28;19931;-70
2022/05/07 04:02:17;;;;;;;;;;;17.80;55.20;;;;;;2036960;28;19916;-72
2022/05/07 04:03:16;;;;;;;;;;;17.90;55.30;;;;;;2036257;28;19912;-71
2022/05/07 04:04:15;;;;;;;;;;;17.90;55.30;;;;;;2036395;28;19912;-72
2022/05/07 04:05:14;;;;;;;;;;;17.80;55.20;;;;;;2035936;28;19923;-72
2022/05/07 04:06:12;;;;;;;;;;;17.80;55.20;;;;;;2036350;28;19998;-71
2022/05/07 04:07:12;;;;;;;;;;;17.80;55.30;;;;;;2036862;28;19919;-71
2022/05/07 04:08:11;;;;;;;;;;;17.80;55.30;;;;;;2037021;28;19908;-71
2022/05/07 04:09:11;;;;;;;;;;;17.80;55.30;;;;;;2036265;28;19935;-71
2022/05/07 04:10:09;;;;;;;;;;;17.80;55.30;;;;;;2036409;28;19908;-71
2022/05/07 04:11:07;;;;;;;;;;;17.80;55.40;;;;;;2037106;28;19908;-72
2022/05/07 04:12:06;;;;;;;;;;;17.80;55.30;;;;;;2037024;28;20375;-71
2022/05/07 04:13:05;;;;;;;;;;;17.80;55.30;;;;;;2036188;28;19985;-70
2022/05/07 04:14:04;;;;;;;;;;;17.80;55.30;;;;;;2036361;28;19912;-72
2022/05/07 04:15:02;;;;;;;;;;;17.80;55.30;;;;;;2036753;28;20367;-70
2022/05/07 04:16:01;;;;;;;;;;;17.80;55.30;;;;;;2037088;28;20011;-72
2022/05/07 04:16:59;;;;;;;;;;;17.80;55.30;;;;;;2036793;28;19965;-70
2022/05/07 04:17:58;;;;;;;;;;;17.80;55.40;;;;;;2037064;28;19915;-71
2022/05/07 04:18:56;;;;;;;;;;;17.80;55.30;;;;;;2036806;28;20256;-71
2022/05/07 04:19:55;;;;;;;;;;;17.80;55.30;;;;;;2036849;28;20302;-71
2022/05/07 04:20:53;;;;;;;;;;;17.80;55.40;;;;;;2036868;28;19923;-72
2022/05/07 04:21:52;;;;;;;;;;;17.80;55.40;;;;;;2036777;28;19992;-72
2022/05/07 04:22:50;;;;;;;;;;;17.80;55.40;;;;;;2036926;28;19909;-71
2022/05/07 04:23:49;;;;;;;;;;;17.80;55.40;;;;;;2036659;28;20014;-71
2022/05/07 04:24:48;;;;;;;;;;;17.80;55.40;;;;;;2036683;28;19909;-71
2022/05/07 04:25:46;;;;;;;;;;;17.80;55.40;;;;;;2036810;28;19915;-71
2022/05/07 04:26:46;;;;;;;;;;;17.80;55.40;;;;;;2036763;28;19908;-70
2022/05/07 04:27:44;;;;;;;;;;;17.80;55.40;;;;;;2036944;28;20275;-71
2022/05/07 04:28:43;;;;;;;;;;;17.80;55.40;;;;;;2037062;28;19908;-70
2022/05/07 04:29:41;;;;;;;;;;;17.80;55.40;;;;;;2036736;28;20010;-71
2022/05/07 04:30:40;;;;;;;;;;;17.80;55.40;;;;;;2036787;28;19908;-71
2022/05/07 04:31:38;;;;;;;;;;;17.80;55.40;;;;;;2036860;28;19954;-71
2022/05/07 04:32:37;;;;;;;;;;;17.80;55.40;;;;;;2036919;28;20297;-71
2022/05/07 04:33:35;;;;;;;;;;;17.80;55.50;;;;;;2036872;28;19908;-70
2022/05/07 04:34:34;;;;;;;;;;;17.80;55.40;;;;;;2036845;28;19912;-71
2022/05/07 04:35:32;;;;;;;;;;;17.80;55.50;;;;;;2037009;28;19935;-71
2022/05/07 04:36:30;;;;;;;;;;;17.80;55.40;;;;;;2037117;28;20361;-71
2022/05/07 04:37:29;;;;;;;;;;;17.80;55.50;;;;;;2036916;28;19915;-72
2022/05/07 04:38:29;;;;;;;;;;;17.80;55.50;;;;;;2036994;28;19912;-72
2022/05/07 04:39:29;;;;;;;;;;;17.80;55.60;;;;;;2036860;28;19908;-71
2022/05/07 04:40:29;;;;;;;;;;;17.80;55.60;;;;;;2036727;28;19908;-72
2022/05/07 04:41:27;;;;;;;;;;;17.80;55.50;;;;;;2036742;28;19980;-71
2022/05/07 04:42:26;;;;;;;;;;;17.80;55.50;;;;;;2035962;28;19916;-71
2022/05/07 04:43:24;;;;;;;;;;;17.80;55.40;;;;;;2036190;28;19908;-72
2022/05/07 04:44:23;;;;;;;;;;;17.80;55.60;;;;;;2036634;28;19908;-71
2022/05/07 04:45:22;;;;;;;;;;;17.80;55.60;;;;;;2036731;28;19908;-72
2022/05/07 04:46:20;;;;;;;;;;;17.80;55.50;;;;;;2037031;28;19961;-71
2022/05/07 04:47:19;;;;;;;;;;;17.80;55.60;;;;;;2036059;28;20305;-71
2022/05/07 04:48:17;;;;;;;;;;;17.80;55.60;;;;;;2036218;28;19951;-71
2022/05/07 04:49:19;;;;;;;;;;;17.80;55.60;;;;;;2036768;28;19908;-71
2022/05/07 04:50:17;;;;;;;;;;;17.80;55.60;;;;;;2036699;28;19908;-71
2022/05/07 04:51:16;;;;;;;;;;;17.80;55.60;;;;;;2036145;28;20275;-72
2022/05/07 04:52:14;;;;;;;;;;;17.80;55.60;;;;;;2036111;28;19965;-71
2022/05/07 04:53:14;;;;;;;;;;;17.80;55.60;;;;;;2036675;28;19943;-71
2022/05/07 04:54:13;;;;;;;;;;;17.80;55.50;;;;;;2036164;28;20386;-71
2022/05/07 04:55:11;;;;;;;;;;;17.80;55.60;;;;;;2036196;28;19931;-71
2022/05/07 04:56:10;;;;;;;;;;;17.80;55.60;;;;;;2036653;28;20355;-72
2022/05/07 04:57:08;;;;;;;;;;;17.80;55.60;;;;;;2036058;28;20256;-71
2022/05/07 04:58:07;;;;;;;;;;;17.80;55.60;;;;;;2036178;28;19912;-71
2022/05/07 04:59:05;;;;;;;;;;;17.80;55.80;;;;;;2036659;28;19920;-72
2022/05/07 05:00:05;;;;;;;;;;;17.80;55.60;;;;;;2036699;28;20371;-71
2022/05/07 05:01:03;;;;;;;;;;;17.80;55.60;;;;;;2036674;28;19915;-71
2022/05/07 05:02:02;;;;;;;;;;;17.90;55.70;;;;;;2036484;28;19955;-71
2022/05/07 05:03:00;;;;;;;;;;;17.90;55.70;;;;;;2036802;28;19908;-71
2022/05/07 05:03:58;;;;;;;;;;;17.90;55.70;;;;;;2036857;28;20386;-71
2022/05/07 05:04:57;;;;;;;;;;;17.90;55.80;;;;;;2036625;28;20350;-71
2022/05/07 05:05:55;;;;;;;;;;;17.80;55.70;;;;;;2036765;28;19908;-71
2022/05/07 05:06:54;;;;;;;;;;;17.90;55.80;;;;;;2036712;28;19912;-72
2022/05/07 05:07:52;;;;;;;;;;;17.90;55.80;;;;;;2036631;28;20012;-71
2022/05/07 05:08:50;;;;;;;;;;;17.90;55.80;;;;;;2036628;28;19908;-70
2022/05/07 05:09:49;;;;;;;;;;;17.80;55.80;;;;;;2037932;28;19912;-71
2022/05/07 05:10:47;;;;;;;;;;;17.80;55.80;;;;;;2038268;28;20408;-71
2022/05/07 05:11:46;;;;;;;;;;;17.90;55.90;;;;;;2038179;28;20366;-72
2022/05/07 05:12:44;;;;;;;;;;;17.90;55.90;;;;;;2038220;28;19908;-72
2022/05/07 05:13:43;;;;;;;;;;;17.80;55.80;;;;;;2038195;28;19948;-71
2022/05/07 05:15:59;;;;;;;;;;;17.90;55.90;;;;;;2038328;28;19966;-71
2022/05/07 05:16:57;;;;;;;;;;;17.80;55.80;;;;;;2037655;28;19912;-71
2022/05/07 05:17:56;;;;;;;;;;;17.90;55.80;;;;;;2037612;28;19908;-71
2022/05/07 05:18:56;;;;;;;;;;;17.90;55.80;;;;;;2036982;28;19908;-71
2022/05/07 05:19:54;;;;;;;;;;;17.90;55.80;;;;;;2037714;28;19912;-71
2022/05/07 05:20:53;;;;;;;;;;;17.90;55.90;;;;;;2038286;28;19915;-71
2022/05/07 05:21:51;;;;;;;;;;;17.90;55.80;;;;;;2038278;28;20271;-71
2022/05/07 05:22:50;;;;;;;;;;;17.90;55.80;;;;;;2038274;28;19908;-71
2022/05/07 05:23:48;;;;;;;;;;;17.90;55.80;;;;;;2038369;28;19916;-73
2022/05/07 05:24:47;;;;;;;;;;;17.90;55.80;;;;;;2038416;28;20259;-72
2022/05/07 05:25:45;;;;;;;;;;;17.90;55.80;;;;;;2038332;28;19908;-71
2022/05/07 05:26:44;;;;;;;;;;;17.90;55.80;;;;;;2038239;28;19915;-71
2022/05/07 05:27:42;;;;;;;;;;;17.90;55.80;;;;;;2038185;28;19952;-70
2022/05/07 05:28:42;;;;;;;;;;;17.90;55.80;;;;;;2038089;28;19908;-71
2022/05/07 05:29:41;;;;;;;;;;;17.90;55.80;;;;;;2038131;28;19908;-70
2022/05/07 05:30:41;;;;;;;;;;;17.90;55.80;;;;;;2038057;28;19940;-72
2022/05/07 05:31:39;;;;;;;;;;;18.00;55.80;;;;;;2037867;28;19915;-71
2022/05/07 05:32:38;;;;;;;;;;;17.90;55.90;;;;;;2037929;28;19915;-71
2022/05/07 05:33:36;;;;;;;;;;;17.90;55.80;;;;;;2038023;28;19908;-71
2022/05/07 05:34:35;;;;;;;;;;;17.90;55.90;;;;;;2037873;28;19991;-71
2022/05/07 05:35:33;;;;;;;;;;;17.90;55.90;;;;;;2038250;28;19956;-71
2022/05/07 05:36:31;;;;;;;;;;;17.90;55.80;;;;;;2037753;28;19919;-70
2022/05/07 05:37:30;;;;;;;;;;;17.90;55.80;;;;;;2037178;28;19950;-71
2022/05/07 05:38:30;;;;;;;;;;;17.90;55.90;;;;;;2037244;28;20367;-71
2022/05/07 05:39:28;;;;;;;;;;;17.90;55.90;;;;;;2037820;28;19908;-70
2022/05/07 05:40:27;;;;;;;;;;;17.90;55.80;;;;;;2037856;28;19915;-71
2022/05/07 05:41:26;;;;;;;;;;;17.90;55.80;;;;;;2037856;28;19908;-70
2022/05/07 05:42:25;;;;;;;;;;;18.00;55.80;;;;;;2037955;28;20011;-71
2022/05/07 05:43:23;;;;;;;;;;;18.00;55.90;;;;;;2037968;28;19920;-71
2022/05/07 05:44:22;;;;;;;;;;;18.00;55.90;;;;;;2037840;28;19908;-71
2022/05/07 05:45:20;;;;;;;;;;;17.90;55.80;;;;;;2037904;28;19919;-71
2022/05/07 05:46:19;;;;;;;;;;;17.90;55.80;;;;;;2037262;28;20456;-71
2022/05/07 05:47:17;;;;;;;;;;;17.90;55.90;;;;;;2037413;28;19912;-70
2022/05/07 05:48:15;;;;;;;;;;;17.90;55.90;;;;;;2037758;28;19908;-70
2022/05/07 05:49:14;;;;;;;;;;;17.90;55.90;;;;;;2037746;28;19912;-71
2022/05/07 05:50:12;;;;;;;;;;;17.90;55.90;;;;;;2037894;28;19912;-72
2022/05/07 05:51:11;;;;;;;;;;;17.90;55.90;;;;;;2037863;28;19908;-71
2022/05/07 05:52:10;;;;;;;;;;;17.90;56.00;;;;;;2037658;28;19908;-72